createdAt,value
2023-02-21T00:00:53.690Z,95519.25
2023-02-21T00:03:39.195Z,95510.78
2023-02-21T00:06:27.570Z,95522.22
2023-02-21T00:09:12.837Z,95523.34
2023-02-21T00:12:02.100Z,95517.72
2023-02-21T00:14:48.151Z,95530.03
2023-02-21T00:17:33.355Z,95532.72
2023-02-21T00:20:18.945Z,95526.59
2023-02-21T00:23:05.421Z,95521.31
2023-02-21T00:25:50.829Z,95522.38
2023-02-21T00:28:37.066Z,95524.91
2023-02-21T00:31:24.050Z,95510.34
2023-02-21T00:34:10.343Z,95514.25
2023-02-21T00:36:55.859Z,95508.94
2023-02-21T00:39:42.484Z,95510.72
2023-02-21T00:42:28.008Z,95507.97
2023-02-21T00:45:13.596Z,95494.69
2023-02-21T00:47:58.788Z,95504.81
2023-02-21T00:50:44.039Z,95492.69
2023-02-21T00:53:29.387Z,95493.69
2023-02-21T00:56:14.691Z,95486.97
2023-02-21T00:58:59.957Z,95477.53
2023-02-21T01:01:45.197Z,95473.06
2023-02-21T01:04:30.868Z,95461.16
2023-02-21T01:07:16.181Z,95460.97
2023-02-21T01:10:01.886Z,95455.06
2023-02-21T01:12:47.491Z,95460.03
2023-02-21T01:15:33.961Z,95466.34
2023-02-21T01:18:19.483Z,95457.44
2023-02-21T01:21:04.883Z,95445.94
2023-02-21T01:23:53.085Z,95431.09
2023-02-21T01:26:38.776Z,95434.47
2023-02-21T01:29:24.283Z,95435.47
2023-02-21T01:32:09.854Z,95432.00
2023-02-21T01:34:57.854Z,95413.00
2023-02-21T01:37:43.188Z,95431.50
2023-02-21T01:40:33.608Z,95434.16
2023-02-21T01:43:20.594Z,95443.50
2023-02-21T01:46:08.485Z,95438.72
2023-02-21T01:48:55.197Z,95432.34
2023-02-21T01:51:45.330Z,95424.88
2023-02-21T01:54:30.986Z,95425.59
2023-02-21T01:57:20.448Z,95426.22
2023-02-21T02:00:08.175Z,95417.19
2023-02-21T02:03:11.857Z,95418.28
2023-02-21T02:05:58.879Z,95388.28
2023-02-21T02:08:48.540Z,95404.59
2023-02-21T02:11:42.603Z,95389.69
2023-02-21T02:14:24.740Z,95393.63
2023-02-21T02:17:16.836Z,95388.47
2023-02-21T02:20:21.619Z,95389.53
2023-02-21T02:23:00.305Z,95387.47
2023-02-21T02:25:57.439Z,95389.69
2023-02-21T02:28:38.820Z,95387.94
2023-02-21T02:31:39.998Z,95382.72
2023-02-21T02:34:10.684Z,95392.47
2023-02-21T02:36:49.313Z,95382.03
2023-02-21T02:39:29.769Z,95385.22
2023-02-21T02:42:02.563Z,95385.78
2023-02-21T02:44:39.604Z,95383.66
2023-02-21T02:47:14.932Z,95367.06
2023-02-21T02:49:44.558Z,95350.19
2023-02-21T02:52:11.607Z,95367.47
2023-02-21T02:54:38.564Z,95380.00
2023-02-21T02:57:10.804Z,95380.75
2023-02-21T02:59:42.669Z,95373.25
2023-02-21T03:02:48.265Z,95374.09
2023-02-21T03:05:29.321Z,95385.34
2023-02-21T03:08:11.951Z,95377.66
2023-02-21T03:10:54.428Z,95386.38
2023-02-21T03:13:42.834Z,95377.41
2023-02-21T03:16:34.262Z,95390.38
2023-02-21T03:19:10.146Z,95381.84
2023-02-21T03:22:10.944Z,95375.16
2023-02-21T03:24:41.576Z,95382.41
2023-02-21T03:27:10.280Z,95374.38
2023-02-21T03:29:47.075Z,95384.91
2023-02-21T03:32:22.521Z,95378.66
2023-02-21T03:34:49.446Z,95364.72
2023-02-21T03:37:40.528Z,95373.09
2023-02-21T03:40:32.359Z,95360.09
2023-02-21T03:43:03.612Z,95366.78
2023-02-21T03:45:35.365Z,95376.44
2023-02-21T03:48:17.694Z,95362.88
2023-02-21T03:50:51.360Z,95366.31
2023-02-21T03:53:19.484Z,95372.41
2023-02-21T03:55:46.593Z,95368.31
2023-02-21T03:58:18.958Z,95382.41
2023-02-21T04:00:45.959Z,95380.69
2023-02-21T04:03:14.088Z,95384.94
2023-02-21T04:06:01.222Z,95379.19
2023-02-21T04:08:28.375Z,95376.25
2023-02-21T04:10:55.375Z,95384.91
2023-02-21T04:13:25.990Z,95389.28
2023-02-21T04:15:54.906Z,95384.41
2023-02-21T04:18:22.175Z,95371.03
2023-02-21T04:20:52.318Z,95391.69
2023-02-21T04:23:21.234Z,95393.88
2023-02-21T04:25:48.256Z,95395.88
2023-02-21T04:28:21.461Z,95401.84
2023-02-21T04:30:48.929Z,95403.50
2023-02-21T04:33:16.376Z,95410.75
2023-02-21T04:35:43.308Z,95410.97
2023-02-21T04:38:18.499Z,95426.72
2023-02-21T04:40:45.369Z,95410.00
2023-02-21T04:43:12.064Z,95410.66
2023-02-21T04:45:39.031Z,95407.22
2023-02-21T04:48:06.033Z,95406.78
2023-02-21T04:50:33.011Z,95405.81
2023-02-21T04:52:59.950Z,95398.72
2023-02-21T04:55:26.674Z,95401.19
2023-02-21T04:57:53.468Z,95386.16
2023-02-21T05:03:04.461Z,95393.31
2023-02-21T05:05:31.145Z,95380.34
2023-02-21T05:07:58.035Z,95382.81
2023-02-21T05:10:31.089Z,95367.78
2023-02-21T05:13:03.688Z,95368.31
2023-02-21T05:15:30.535Z,95365.22
2023-02-21T05:17:57.167Z,95371.13
2023-02-21T05:20:24.076Z,95368.22
2023-02-21T05:22:50.858Z,95370.31
2023-02-21T05:25:19.902Z,95367.44
2023-02-21T05:27:47.231Z,95380.63
2023-02-21T05:30:18.012Z,95374.50
2023-02-21T05:32:44.855Z,95369.19
2023-02-21T05:35:13.907Z,95369.28
2023-02-21T05:37:40.758Z,95386.16
2023-02-21T05:40:10.428Z,95376.72
2023-02-21T05:42:37.294Z,95389.16
2023-02-21T05:45:06.894Z,95385.78
2023-02-21T05:47:35.003Z,95385.91
2023-02-21T05:50:02.087Z,95393.56
2023-02-21T05:52:28.920Z,95403.78
2023-02-21T05:54:55.785Z,95398.06
2023-02-21T05:57:22.732Z,95396.34
2023-02-21T05:59:49.396Z,95395.97
2023-02-21T06:02:16.231Z,95379.91
2023-02-21T06:04:43.013Z,95404.88
2023-02-21T06:07:10.057Z,95400.28
2023-02-21T06:09:36.754Z,95406.06
2023-02-21T06:12:03.669Z,95411.41
2023-02-21T06:14:30.375Z,95409.03
2023-02-21T06:16:57.180Z,95404.50
2023-02-21T06:19:23.895Z,95400.31
2023-02-21T06:21:50.703Z,95405.25
2023-02-21T06:24:17.456Z,95409.38
2023-02-21T06:26:45.060Z,95410.59
2023-02-21T06:29:12.066Z,95406.31
2023-02-21T06:31:39.062Z,95416.91
2023-02-21T06:34:06.039Z,95411.59
2023-02-21T06:36:32.795Z,95410.91
2023-02-21T06:38:59.749Z,95409.66
2023-02-21T06:41:29.965Z,95417.94
2023-02-21T06:43:58.258Z,95419.53
2023-02-21T06:46:29.018Z,95426.16
2023-02-21T06:48:55.941Z,95413.13
2023-02-21T06:51:29.253Z,95407.75
2023-02-21T06:53:57.873Z,95390.09
2023-02-21T06:56:24.910Z,95409.63
2023-02-21T06:58:53.401Z,95411.81
2023-02-21T07:01:20.326Z,95403.47
2023-02-21T07:03:47.760Z,95414.31
2023-02-21T07:06:15.137Z,95404.59
2023-02-21T07:08:42.273Z,95399.66
2023-02-21T07:11:09.834Z,95404.75
2023-02-21T07:13:37.479Z,95407.97
2023-02-21T07:16:04.652Z,95413.50
2023-02-21T07:18:31.456Z,95406.25
2023-02-21T07:20:58.578Z,95409.28
2023-02-21T07:23:25.657Z,95417.53
2023-02-21T07:25:52.618Z,95390.72
2023-02-21T07:28:19.533Z,95392.78
2023-02-21T07:30:47.205Z,95395.22
2023-02-21T07:33:14.178Z,95384.47
2023-02-21T07:35:40.863Z,95388.28
2023-02-21T07:38:07.579Z,95380.91
2023-02-21T07:40:34.308Z,95383.84
2023-02-21T07:43:02.406Z,95381.56
2023-02-21T07:45:29.304Z,95378.97
2023-02-21T07:47:55.952Z,95372.53
2023-02-21T07:50:23.760Z,95365.16
2023-02-21T07:52:50.751Z,95378.47
2023-02-21T07:55:17.670Z,95358.56
2023-02-21T07:57:45.455Z,95362.53
2023-02-21T08:00:12.634Z,95360.16
2023-02-21T08:02:49.529Z,95361.16
2023-02-21T08:05:17.641Z,95357.53
2023-02-21T08:07:44.668Z,95345.44
2023-02-21T08:10:12.701Z,95353.34
2023-02-21T08:12:39.425Z,95345.41
2023-02-21T08:15:06.612Z,95352.28
2023-02-21T08:17:33.339Z,95345.44
2023-02-21T08:20:00.085Z,95341.22
2023-02-21T08:22:27.019Z,95346.50
2023-02-21T08:24:53.853Z,95343.59
2023-02-21T08:27:20.582Z,95350.19
2023-02-21T08:29:50.134Z,95339.13
2023-02-21T08:32:19.018Z,95346.22
2023-02-21T08:34:46.813Z,95334.91
2023-02-21T08:37:23.346Z,95321.97
2023-02-21T08:39:52.257Z,95332.22
2023-02-21T08:42:20.089Z,95318.00
2023-02-21T08:44:47.418Z,95328.53
2023-02-21T08:47:16.545Z,95326.91
2023-02-21T08:49:47.704Z,95326.38
2023-02-21T08:52:17.059Z,95329.56
2023-02-21T08:54:44.741Z,95323.09
2023-02-21T08:57:12.491Z,95331.53
2023-02-21T08:59:44.999Z,95322.59
2023-02-21T09:02:17.390Z,95319.69
2023-02-21T09:04:47.366Z,95329.47
2023-02-21T09:07:17.227Z,95317.16
2023-02-21T09:09:44.223Z,95312.94
2023-02-21T09:12:11.829Z,95281.75
2023-02-21T09:14:41.445Z,95295.38
2023-02-21T09:17:12.945Z,95294.97
2023-02-21T09:19:40.284Z,95299.34
2023-02-21T09:22:09.319Z,95294.28
2023-02-21T09:24:36.723Z,95298.19
2023-02-21T09:27:03.741Z,95298.81
2023-02-21T09:29:45.023Z,95289.81
2023-02-21T09:32:13.187Z,95301.09
2023-02-21T09:34:40.049Z,95290.53
2023-02-21T09:37:07.114Z,95284.53
2023-02-21T09:39:33.925Z,95286.44
2023-02-21T09:42:00.832Z,95265.72
2023-02-21T09:44:29.576Z,95262.38
2023-02-21T09:47:07.605Z,95259.94
2023-02-21T09:49:39.111Z,95266.59
2023-02-21T09:52:15.961Z,95239.44
2023-02-21T09:54:50.803Z,95257.03
2023-02-21T09:57:18.909Z,95228.28
2023-02-21T09:59:46.244Z,95251.09
2023-02-21T10:02:35.781Z,95245.91
2023-02-21T10:05:30.441Z,95234.28
2023-02-21T10:08:05.078Z,95234.09
2023-02-21T10:10:52.372Z,95224.22
2023-02-21T10:13:51.933Z,95217.88
2023-02-21T10:16:27.047Z,95220.56
2023-02-21T10:18:53.787Z,95223.00
2023-02-21T10:21:33.552Z,95211.28
2023-02-21T10:24:10.165Z,95205.72
2023-02-21T10:26:41.194Z,95198.69
2023-02-21T10:29:22.448Z,95193.09
2023-02-21T10:31:55.200Z,95187.41
2023-02-21T10:34:28.023Z,95184.56
2023-02-21T10:37:15.491Z,95187.53
2023-02-21T10:39:51.603Z,95171.25
2023-02-21T10:42:44.949Z,95158.88
2023-02-21T10:45:16.235Z,95163.28
2023-02-21T10:48:07.631Z,95141.25
2023-02-21T10:50:45.152Z,95142.34
2023-02-21T10:53:47.848Z,95148.66
2023-02-21T10:56:20.379Z,95134.28
2023-02-21T10:58:51.874Z,95132.91
2023-02-21T11:01:30.592Z,95123.66
2023-02-21T11:04:24.267Z,95115.38
2023-02-21T11:06:58.297Z,95116.13
2023-02-21T11:09:27.892Z,95108.28
2023-02-21T11:12:18.180Z,95095.94
2023-02-21T11:14:50.884Z,95089.03
2023-02-21T11:17:24.979Z,95083.41
2023-02-21T11:20:06.551Z,95078.81
2023-02-21T11:22:39.531Z,95076.00
2023-02-21T11:25:20.136Z,95077.03
2023-02-21T11:28:01.129Z,95076.13
2023-02-21T11:30:29.061Z,95070.47
2023-02-21T11:32:58.002Z,95071.50
2023-02-21T11:35:29.297Z,95067.72
2023-02-21T11:38:03.827Z,95059.06
2023-02-21T11:40:44.166Z,95069.53
2023-02-21T11:43:25.917Z,95058.00
2023-02-21T11:46:00.191Z,95050.59
2023-02-21T11:48:32.955Z,95051.44
2023-02-21T11:51:07.463Z,95036.88
2023-02-21T11:53:40.865Z,95034.47
2023-02-21T11:56:16.615Z,95036.88
2023-02-21T11:58:49.181Z,95022.06
2023-02-21T12:01:24.521Z,95016.88
2023-02-21T12:04:01.537Z,95012.06
2023-02-21T12:06:40.136Z,95008.31
2023-02-21T12:09:25.148Z,95008.31
2023-02-21T12:12:15.419Z,94998.25
2023-02-21T12:14:54.027Z,94999.84
2023-02-21T12:17:46.640Z,94989.53
2023-02-21T12:20:38.596Z,94990.34
2023-02-21T12:23:14.087Z,94977.47
2023-02-21T12:26:13.278Z,94971.44
2023-02-21T12:28:48.993Z,94966.66
2023-02-21T12:31:53.824Z,94970.16
2023-02-21T12:34:59.397Z,94969.31
2023-02-21T12:37:47.210Z,94954.56
2023-02-21T12:40:34.595Z,94950.69
2023-02-21T12:43:19.703Z,94946.81
2023-02-21T12:45:54.990Z,94950.31
2023-02-21T12:48:37.924Z,94939.53
2023-02-21T12:51:20.326Z,94931.66
2023-02-21T12:54:04.433Z,94939.44
2023-02-21T12:56:40.201Z,94931.81
2023-02-21T12:59:33.542Z,94939.78
2023-02-21T13:02:09.584Z,94933.47
2023-02-21T13:04:47.182Z,94936.66
2023-02-21T13:07:25.626Z,94935.00
2023-02-21T13:09:57.846Z,94930.03
2023-02-21T13:12:36.018Z,94931.13
2023-02-21T13:15:21.996Z,94927.16
2023-02-21T13:17:58.883Z,94931.91
2023-02-21T13:20:32.145Z,94914.53
2023-02-21T13:23:39.820Z,94917.28
2023-02-21T13:26:40.976Z,94912.28
2023-02-21T13:29:19.756Z,94902.44
2023-02-21T13:31:47.823Z,94905.88
2023-02-21T13:34:23.735Z,94900.75
2023-02-21T13:36:51.871Z,94904.97
2023-02-21T13:39:22.261Z,94907.13
2023-02-21T13:41:53.319Z,94911.66
2023-02-21T13:44:28.481Z,94899.09
2023-02-21T13:47:13.912Z,94895.69
2023-02-21T13:49:52.756Z,94887.47
2023-02-21T13:52:19.719Z,94895.69
2023-02-21T13:55:20.448Z,94883.38
2023-02-21T13:58:00.442Z,94888.81
2023-02-21T14:00:27.672Z,94880.38
2023-02-21T14:03:07.041Z,94867.91
2023-02-21T14:05:47.001Z,94872.06
2023-02-21T14:08:50.836Z,94872.78
2023-02-21T14:11:23.856Z,94866.50
2023-02-21T14:13:54.585Z,94873.69
2023-02-21T14:16:48.212Z,94867.47
2023-02-21T14:19:22.309Z,94877.78
2023-02-21T14:21:56.638Z,94864.38
2023-02-21T14:24:27.133Z,94868.13
2023-02-21T14:26:57.866Z,94878.03
2023-02-21T14:29:29.976Z,94877.94
2023-02-21T14:32:16.789Z,94852.25
2023-02-21T14:34:49.886Z,94868.75
2023-02-21T14:37:39.206Z,94867.88
2023-02-21T14:40:12.079Z,94873.69
2023-02-21T14:46:48.815Z,94861.91
2023-02-21T14:49:43.516Z,94865.38
2023-02-21T14:52:23.570Z,94856.50
2023-02-21T14:55:08.672Z,94861.38
2023-02-21T14:57:44.737Z,94866.16
2023-02-21T15:00:40.634Z,94866.97
2023-02-21T15:03:07.454Z,94863.25
2023-02-21T15:06:03.752Z,94864.66
2023-02-21T15:08:41.769Z,94862.16
2023-02-21T15:11:21.244Z,94861.28
2023-02-21T15:13:48.402Z,94872.06
2023-02-21T15:16:16.683Z,94871.69
2023-02-21T15:19:01.644Z,94869.94
2023-02-21T15:21:28.700Z,94871.41
2023-02-21T15:24:13.031Z,94876.81
2023-02-21T15:26:40.002Z,94876.81
2023-02-21T15:29:09.942Z,94875.56
2023-02-21T15:31:43.447Z,94886.59
2023-02-21T15:34:20.287Z,94874.09
2023-02-21T15:37:00.398Z,94885.28
2023-02-21T15:39:33.297Z,94887.91
2023-02-21T15:42:05.411Z,94887.91
2023-02-21T15:44:43.288Z,94890.47
2023-02-21T15:47:15.694Z,94900.44
2023-02-21T15:49:59.883Z,94897.75
2023-02-21T15:52:36.841Z,94905.97
2023-02-21T15:55:29.648Z,94897.50
2023-02-21T15:58:27.021Z,94892.53
2023-02-21T16:01:23.004Z,94892.53
2023-02-21T16:03:49.883Z,94894.75
2023-02-21T16:06:28.191Z,94898.38
2023-02-21T16:09:06.713Z,94896.84
2023-02-21T16:11:54.365Z,94909.44
2023-02-21T16:14:46.233Z,94904.63
2023-02-21T16:17:12.949Z,94915.59
2023-02-21T16:19:47.837Z,94914.59
2023-02-21T16:22:29.834Z,94906.81
2023-02-21T16:25:16.297Z,94907.94
2023-02-21T16:27:47.087Z,94912.66
2023-02-21T16:30:31.591Z,94911.75
2023-02-21T16:33:04.332Z,94914.19
2023-02-21T16:35:32.738Z,94919.75
2023-02-21T16:38:00.664Z,94928.53
2023-02-21T16:40:30.531Z,94918.91
2023-02-21T16:42:58.892Z,94918.16
2023-02-21T16:45:25.767Z,94931.97
2023-02-21T16:48:05.864Z,94930.38
2023-02-21T16:50:38.347Z,94931.59
2023-02-21T16:53:05.786Z,94936.06
2023-02-21T16:55:32.948Z,94929.03
2023-02-21T16:58:03.709Z,94926.03
2023-02-21T17:00:32.073Z,94936.78
2023-02-21T17:02:59.036Z,94941.47
2023-02-21T17:05:26.432Z,94953.13
2023-02-21T17:07:54.302Z,94957.22
2023-02-21T17:10:21.813Z,94957.44
2023-02-21T17:12:50.065Z,94954.91
2023-02-21T17:15:16.866Z,94959.16
2023-02-21T17:17:50.905Z,94961.91
2023-02-21T17:20:20.220Z,94958.84
2023-02-21T17:22:48.453Z,94964.88
2023-02-21T17:25:16.442Z,94963.19
2023-02-21T17:27:44.898Z,94962.72
2023-02-21T17:30:13.458Z,94961.63
2023-02-21T17:32:40.376Z,94938.25
2023-02-21T17:35:07.776Z,94961.81
2023-02-21T17:37:34.545Z,94946.69
2023-02-21T17:40:01.828Z,94959.19
2023-02-21T17:42:28.531Z,94964.69
2023-02-21T17:44:56.229Z,94966.53
2023-02-21T17:47:23.712Z,94962.09
2023-02-21T17:49:54.539Z,94961.97
2023-02-21T17:52:22.074Z,94957.94
2023-02-21T17:54:48.830Z,94962.13
2023-02-21T17:57:15.806Z,94962.09
2023-02-21T17:59:42.660Z,94960.69
2023-02-21T18:02:09.441Z,94956.59
2023-02-21T18:04:36.790Z,94963.75
2023-02-21T18:07:03.870Z,94967.75
2023-02-21T18:09:31.435Z,94965.50
2023-02-21T18:11:59.383Z,94965.25
2023-02-21T18:14:30.176Z,94974.91
2023-02-21T18:16:58.264Z,94981.84
2023-02-21T18:19:25.542Z,94974.31
2023-02-21T18:21:52.746Z,94970.75
2023-02-21T18:24:22.975Z,94982.13
2023-02-21T18:26:50.020Z,94983.28
2023-02-21T18:29:17.096Z,94970.13
2023-02-21T18:31:43.975Z,94968.41
2023-02-21T18:34:10.680Z,94973.50
2023-02-21T18:36:41.043Z,94983.72
2023-02-21T18:39:07.859Z,94976.06
2023-02-21T18:41:35.670Z,94971.84
2023-02-21T18:44:02.571Z,94977.81
2023-02-21T18:46:30.459Z,94967.91
2023-02-21T18:48:57.246Z,94981.94
2023-02-21T18:51:24.277Z,94986.44
2023-02-21T18:53:51.194Z,94983.41
2023-02-21T18:56:19.807Z,94982.91
2023-02-21T18:58:49.669Z,94980.97
2023-02-21T19:01:19.031Z,94983.44
2023-02-21T19:03:49.460Z,94994.66
2023-02-21T19:06:18.178Z,94999.00
2023-02-21T19:08:50.516Z,94997.75
2023-02-21T19:11:18.116Z,94994.88
2023-02-21T19:13:47.468Z,95014.38
2023-02-21T19:16:15.069Z,95009.41
2023-02-21T19:18:41.942Z,95018.53
2023-02-21T19:21:12.706Z,95020.75
2023-02-21T19:23:40.936Z,95015.03
2023-02-21T19:26:08.646Z,95019.25
2023-02-21T19:28:37.386Z,95014.44
2023-02-21T19:31:04.555Z,95018.38
2023-02-21T19:33:31.257Z,95022.25
2023-02-21T19:35:57.926Z,95030.53
2023-02-21T19:38:24.737Z,95037.94
2023-02-21T19:40:51.528Z,95040.25
2023-02-21T19:43:18.564Z,95042.06
2023-02-21T19:45:45.353Z,95032.91
2023-02-21T19:48:12.212Z,95050.25
2023-02-21T19:50:41.382Z,95053.19
2023-02-21T19:53:08.133Z,95055.31
2023-02-21T19:55:34.942Z,95054.50
2023-02-21T19:58:06.847Z,95053.75
2023-02-21T20:00:34.845Z,95056.91
2023-02-21T20:03:02.228Z,95055.88
2023-02-21T20:05:29.118Z,95044.78
2023-02-21T20:07:55.920Z,95039.09
2023-02-21T20:10:49.056Z,95035.88
2023-02-21T20:13:27.317Z,95061.13
2023-02-21T20:16:22.563Z,95060.28
2023-02-21T20:22:55.909Z,95063.75
2023-02-21T20:25:22.666Z,95065.59
2023-02-21T20:27:49.553Z,95063.28
2023-02-21T20:30:17.614Z,95060.03
2023-02-21T20:32:44.728Z,95063.88
2023-02-21T20:35:12.695Z,95057.53
2023-02-21T20:37:40.092Z,95059.91
2023-02-21T20:40:10.272Z,95058.78
2023-02-21T20:42:37.525Z,95056.06
2023-02-21T20:45:05.867Z,95056.88
2023-02-21T20:47:32.658Z,95057.88
2023-02-21T20:49:59.584Z,95050.75
2023-02-21T20:52:26.353Z,95049.69
2023-02-21T20:54:53.323Z,95055.44
2023-02-21T20:57:20.077Z,95044.38
2023-02-21T20:59:46.960Z,95056.50
2023-02-21T21:02:14.069Z,95050.34
2023-02-21T21:04:43.223Z,95049.53
2023-02-21T21:07:15.406Z,95053.16
2023-02-21T21:09:43.808Z,95051.91
2023-02-21T21:12:14.976Z,95045.78
2023-02-21T21:14:44.045Z,95051.66
2023-02-21T21:17:13.818Z,95037.50
2023-02-21T21:19:42.810Z,95043.84
2023-02-21T21:22:12.958Z,95042.50
2023-02-21T21:24:40.515Z,95026.47
2023-02-21T21:27:10.212Z,95027.09
2023-02-21T21:29:38.997Z,95030.47
2023-02-21T21:32:06.140Z,95036.56
2023-02-21T21:34:33.363Z,95031.91
2023-02-21T21:37:03.983Z,95022.94
2023-02-21T21:39:31.626Z,95040.53
2023-02-21T21:42:05.386Z,95031.28
2023-02-21T21:44:32.949Z,95027.91
2023-02-21T21:47:01.127Z,95007.63
2023-02-21T21:49:33.522Z,95027.06
2023-02-21T21:52:01.332Z,95020.28
2023-02-21T21:54:30.436Z,95024.38
2023-02-21T21:56:58.970Z,95023.06
2023-02-21T21:59:27.023Z,95016.75
2023-02-21T22:01:57.729Z,95027.28
2023-02-21T22:04:28.765Z,95039.06
2023-02-21T22:06:56.845Z,95042.16
2023-02-21T22:09:25.545Z,95027.97
2023-02-21T22:11:52.846Z,95043.38
2023-02-21T22:14:22.755Z,95045.47
2023-02-21T22:16:51.367Z,95045.47
2023-02-21T22:19:19.912Z,95038.94
2023-02-21T22:21:47.651Z,95041.88
2023-02-21T22:26:59.741Z,95047.06
2023-02-21T22:29:26.631Z,95047.56
2023-02-21T22:31:53.937Z,95050.78
2023-02-21T22:34:23.626Z,95052.72
2023-02-21T22:36:52.519Z,95051.63
2023-02-21T22:39:20.477Z,95043.22
2023-02-21T22:41:48.948Z,95053.25
2023-02-21T22:44:16.585Z,95054.03
2023-02-21T22:46:58.562Z,95067.72
2023-02-21T22:49:27.278Z,95069.84
2023-02-21T22:51:54.584Z,95076.41
2023-02-21T22:54:21.447Z,95075.94
2023-02-21T22:56:51.399Z,95078.84
2023-02-21T22:59:20.736Z,95080.13
2023-02-21T23:01:47.511Z,95078.59
2023-02-21T23:04:26.042Z,95088.06
2023-02-21T23:07:00.367Z,95087.56
2023-02-21T23:09:30.244Z,95078.59
2023-02-21T23:11:59.708Z,95080.69
2023-02-21T23:14:27.411Z,95081.97
2023-02-21T23:16:58.780Z,95092.69
2023-02-21T23:19:27.712Z,95085.81
2023-02-21T23:21:57.705Z,95080.13
2023-02-21T23:24:24.917Z,95084.88
2023-02-21T23:26:54.647Z,95088.06
2023-02-21T23:29:24.215Z,95078.34
2023-02-21T23:31:52.558Z,95066.47
2023-02-21T23:34:19.875Z,95086.47
2023-02-21T23:36:46.787Z,95087.50
2023-02-21T23:39:15.236Z,95095.31
2023-02-21T23:41:48.808Z,95106.22
2023-02-21T23:44:16.239Z,95104.44
2023-02-21T23:46:44.366Z,95104.94
2023-02-21T23:49:15.602Z,95094.94
2023-02-21T23:51:44.235Z,95097.22
2023-02-21T23:54:13.668Z,95098.94
2023-02-21T23:56:40.702Z,95093.66
2023-02-21T23:59:07.890Z,95095.78
